Fisher Golf — FUGD — position and weather

sailwx.info

Track history (hours):
 
Tides and Currents Weather Stations Pressure Air Temp Water Temp Dewpoint Dewpoint Depression Visibility Wind Speed Wind Dir Waves Ship Positions

Fisher Golf

Last reported at 2015-Mar-09 20:19 UTC. Time now 2015-Mar-30 05:52 UTC.
Position N 45°42' W 002°51'.
Warning: this ship's position is 20 days out of date.

Length 20 m.

Type: Fishing. MMSI: 228239000.

Date/timePositionNaut miles runAvg speedWind from/ knotsBaromVisibWave heightAir tempDewpointWater temp
2015-Mar-09 20:19N 45°42' W 002°51'10 2.6
2015-Mar-09 16:18N 45°36' W 002°38'3 0.1
2015-Mar-08 14:33N 45°36' W 002°43'4 3.2
2015-Mar-08 13:21N 45°37' W 002°48'1 1.4
2015-Mar-08 12:30N 45°38' W 002°47'3 2.9
2015-Mar-08 11:32N 45°37' W 002°43'3 3.0
2015-Mar-08 10:28N 45°35' W 002°39'4 3.1
2015-Mar-08 09:20N 45°33' W 002°35'9 1.9
2015-Mar-08 04:33N 45°37' W 002°46'3 3.3
2015-Mar-08 03:30N 45°37' W 002°51'3 3.1
2015-Mar-08 02:33N 45°37' W 002°55'3 3.1
2015-Mar-08 01:33N 45°39' W 002°59'3 3.0
2015-Mar-08 00:33N 45°42' W 003°01'3 3.0
2015-Mar-07 23:33N 45°44' W 003°04'3 2.6
2015-Mar-07 22:34N 45°46' W 003°07'4 2.6
2015-Mar-07 21:05N 45°46' W 003°01'2 3.2
2015-Mar-07 20:33N 45°44' W 002°60'3 2.9
2015-Mar-07 19:34N 45°41' W 002°60'3 2.9
2015-Mar-07 18:33N 45°39' W 002°58'3 3.0
2015-Mar-07 17:33N 45°38' W 002°54'3 2.7
2015-Mar-07 16:33N 45°38' W 002°51'3 2.9
2015-Mar-07 15:24N 45°38' W 002°46'  
Track history (hours):
 
Tides and Currents Weather Stations Pressure Air Temp Water Temp Dewpoint Dewpoint Depression Visibility Wind Speed Wind Dir Waves Ship Positions

Fisher Golf

Last reported at 2015-Mar-09 20:19 UTC. Time now 2015-Mar-30 05:52 UTC.
Position N 45°42' W 002°51'.
Warning: this ship's position is 20 days out of date.

Length 20 m.

Type: Fishing. MMSI: 228239000.

Date/timePositionNaut miles runAvg speedWind from/ knotsBaromVisibWave heightAir tempDewpointWater temp
2015-Mar-09 20:19N 45°42' W 002°51'10 2.6
2015-Mar-09 16:18N 45°36' W 002°38'3 0.1
2015-Mar-08 14:33N 45°36' W 002°43'4 3.2
2015-Mar-08 13:21N 45°37' W 002°48'1 1.4
2015-Mar-08 12:30N 45°38' W 002°47'3 2.9
2015-Mar-08 11:32N 45°37' W 002°43'3 3.0
2015-Mar-08 10:28N 45°35' W 002°39'4 3.1
2015-Mar-08 09:20N 45°33' W 002°35'9 1.9
2015-Mar-08 04:33N 45°37' W 002°46'3 3.3
2015-Mar-08 03:30N 45°37' W 002°51'3 3.1
2015-Mar-08 02:33N 45°37' W 002°55'3 3.1
2015-Mar-08 01:33N 45°39' W 002°59'3 3.0
2015-Mar-08 00:33N 45°42' W 003°01'3 3.0
2015-Mar-07 23:33N 45°44' W 003°04'3 2.6
2015-Mar-07 22:34N 45°46' W 003°07'4 2.6
2015-Mar-07 21:05N 45°46' W 003°01'2 3.2
2015-Mar-07 20:33N 45°44' W 002°60'3 2.9
2015-Mar-07 19:34N 45°41' W 002°60'3 2.9
2015-Mar-07 18:33N 45°39' W 002°58'3 3.0
2015-Mar-07 17:33N 45°38' W 002°54'3 2.7
2015-Mar-07 16:33N 45°38' W 002°51'3 2.9
2015-Mar-07 15:24N 45°38' W 002°46'  

Dump ship's entire track history